Home > Products > Valid Products > TAF

000
FTUS44 KLIX 311100
TAFMCB
TAF
KMCB 311136Z 3112/0112 06005KT P6SM BKN090
     FM311700 00000KT P6SM BKN090
     FM312000 VRB03KT P6SM BKN090 PROB30 3121/3124 VRB20KT 4SM TSRA
      BKN050CB
     FM010100 30005KT P6SM BKN080
     FM010800 07005KT P6SM BKN070=



000
FTUS44 KLIX 311100
TAFNEW
TAF
KNEW 311136Z 3112/0112 00000KT P6SM BKN090
     FM311600 03006KT P6SM BKN090
     FM311800 01006KT P6SM SCT090=



000
FTUS44 KLIX 311100
TAFGPT
TAF
KGPT 311136Z 3112/0112 01006KT P6SM SCT100
     FM311800 09004KT P6SM SCT090
     FM312100 15006KT P6SM SCT090
     FM010200 24007KT P6SM BKN090
     FM010800 36005KT P6SM BKN080=



000
FTUS44 KLIX 311100
TAFNEW
TAF
KNEW 311136Z 3112/0112 00000KT P6SM BKN090
     FM311600 03006KT P6SM BKN090
     FM311800 01006KT P6SM SCT090=



000
FTUS44 KLIX 311100
TAFBTR
TAF
KBTR 311136Z 3112/0112 00000KT P6SM BKN090
     FM312100 07004KT P6SM BKN090 PROB30 3121/3124 VRB20KT 4SM TSRA
      BKN050CB
     FM010100 06005KT P6SM BKN090
     FM010800 VRB03KT P6SM BKN040=



000
FTUS44 KLIX 311100
TAFMSY
TAF
KMSY 311136Z 3112/0112 00000KT P6SM SCT090
     FM311600 36006KT P6SM SCT090
     FM311900 01006KT P6SM BKN090=



000
FTUS44 KLIX 310500
TAFMSY
TAF
KMSY 310540Z 3106/0106 08004KT P6SM FEW250
     FM311500 05004KT P6SM SCT030
     FM311800 10005KT P6SM SCT035 BKN100
     FM312300 16003KT P6SM BKN100=



000
FTUS44 KLIX 310500
TAFNEW
TAF
KNEW 310540Z 3106/0106 06009KT P6SM SKC
     FM311900 35005KT P6SM SCT030 BKN090
     FM010100 13003KT P6SM SCT030 BKN090=



000
FTUS44 KLIX 310500
TAFMCB
TAF
KMCB 310540Z 3106/0106 00000KT P6SM SKC
     FM311400 06004KT P6SM SCT030 BKN090
     FM311700 05003KT P6SM SCT030 BKN090 PROB30 3118/3123 VRB14KT
      2SM TSRA BKN050CB
     FM312300 VRB03KT P6SM BKN080
     FM010100 00000KT P6SM BKN080=



000
FTUS44 KLIX 310500
TAFBTR
TAF
KBTR 310540Z 3106/0106 04004KT P6SM SKC
     FM311300 02003KT P6SM BKN090
     FM311700 05005KT P6SM SCT035 BKN090 PROB30 3118/3123 VRB14KT
      2SM TSRA BKN050CB
     FM312300 00000KT P6SM BKN100=



000
FTUS44 KLIX 310500
TAFGPT
TAF
KGPT 310540Z 3106/0106 00000KT P6SM SKC
     FM311700 17007KT P6SM SCT030 BKN090
     FM312300 18005KT P6SM SCT090
     FM010100 VRB02KT P6SM BKN090=



000
FTUS44 KLIX 310500
TAFNEW
TAF
KNEW 310540Z 3106/0106 06009KT P6SM SKC
     FM311900 35005KT P6SM SCT030 BKN090
     FM010100 13003KT P6SM SCT030 BKN090=



000
FTUS44 KLIX 302300
TAFMCB
TAF
KMCB 302340Z 3100/3124 VRB03KT P6SM SKC
     FM311100 00000KT P6SM SCT030 BKN090
     FM311700 VRB03KT P6SM VCTS SCT030 BKN090CB
     FM312300 VRB03KT P6SM BKN080=



000
FTUS44 KLIX 302300
TAFBTR
TAF
KBTR 302340Z 3100/3124 VRB03KT P6SM SKC
     FM311300 02003KT P6SM BKN090
     FM311700 05005KT P6SM VCTS SCT035 BKN090CB
     FM312300 00000KT P6SM BKN100=



000
FTUS44 KLIX 302300
TAFNEW
TAF
KNEW 302340Z 3100/3124 28007KT P6SM SKC
     FM310400 06005KT P6SM FEW200
     FM311900 35005KT P6SM SCT030 BKN090=



000
FTUS44 KLIX 302300
TAFMSY
TAF
KMSY 302340Z 3100/3124 35006KT P6SM FEW050 SCT250
     FM310030 VRB03KT P6SM FEW250
     FM311500 05004KT P6SM SCT030
     FM311800 VRB03KT P6SM SCT035 BKN100=



000
FTUS44 KLIX 302300
TAFGPT
TAF
KGPT 302340Z 3100/3124 01006KT P6SM SKC
     FM310100 VRB03KT P6SM SKC
     FM311700 18005KT P6SM SCT030 BKN090
     FM312300 18005KT P6SM SCT090=



000
FTUS44 KLIX 302300
TAFNEW
TAF
KNEW 302340Z 3100/3124 28007KT P6SM SKC
     FM310400 06005KT P6SM FEW200
     FM311900 35005KT P6SM SCT030 BKN090=



000
FTUS44 KLIX 301700
TAFMCB
TAF
KMCB 301728Z 3018/3118 02005KT P6SM FEW250
     FM310700 00000KT P6SM BKN120=



000
FTUS44 KLIX 301700
TAFGPT
TAF
KGPT 301728Z 3018/3118 36007KT P6SM FEW250=



000
FTUS44 KLIX 301700
TAFNEW
TAF
KNEW 301728Z 3018/3118 02007KT P6SM FEW250
     FM310500 14004KT P6SM SCT140
     FM311500 36005KT P6SM BKN120=



000
FTUS44 KLIX 301700
TAFBTR
TAF
KBTR 301728Z 3018/3118 03004KT P6SM FEW250
     FM311000 00000KT P6SM BKN120=



000
FTUS44 KLIX 301700
TAFMSY
TAF
KMSY 301728Z 3018/3118 02008KT P6SM FEW250
     FM311600 36005KT P6SM BKN120=



000
FTUS44 KLIX 301700
TAFNEW
TAF
KNEW 301728Z 3018/3118 02007KT P6SM FEW250
     FM310500 14004KT P6SM SCT140
     FM311500 36005KT P6SM BKN120=



000
FTUS44 KLIX 301200 AAA
TAFMCB
TAF AMD
KMCB 301219Z 3012/3112 VRB03KT P6SM FEW250
     FM310700 00000KT P6SM BKN100=



000
FTUS44 KLIX 301100
TAFNEW
TAF
KNEW 301121Z 3012/3112 05012KT P6SM FEW250
     FM301600 04006KT P6SM FEW250
     FM302000 VRB04KT P6SM FEW250=



000
FTUS44 KLIX 301100
TAFNEW
TAF
KNEW 301121Z 3012/3112 05012KT P6SM FEW250
     FM301600 04006KT P6SM FEW250
     FM302000 VRB04KT P6SM FEW250=



000
FTUS44 KLIX 301100
TAFBTR
TAF
KBTR 301121Z 3012/3112 VRB04KT P6SM FEW250
     FM311000 00000KT P6SM BKN100=



000
FTUS44 KLIX 301100
TAFMSY
TAF
KMSY 301121Z 3012/3112 04007KT P6SM FEW250
     FM302300 VRB03KT P6SM FEW250=



000
FTUS44 KLIX 301100
TAFGPT
TAF
KGPT 301121Z 3012/3112 03007KT P6SM FEW250
     FM301900 VRB03KT P6SM FEW250=



000
FTUS44 KLIX 301100
TAFMCB
TAF
KMCB 301121Z 3012/3112 VRB03KT 4SM HZ SKC
     FM301300 VRB03KT P6SM FEW250
     FM310700 00000KT P6SM BKN100=



000
FTUS44 KLIX 300600 AAA
TAFMSY
TAF AMD
KMSY 300603Z 3006/3106 04012KT P6SM FEW060 SCT250
     FM300900 05007KT P6SM SCT045
     FM310100 VRB03KT P6SM SCT250=



000
FTUS44 KLIX 300600 AAA
TAFNEW
TAF AMD
KNEW 300603Z 3006/3106 04015KT P6SM FEW060 SCT250
     FM301000 05009KT P6SM FEW045
     FM310100 04004KT P6SM SCT250=



000
FTUS44 KLIX 300600 AAA
TAFNEW
TAF AMD
KNEW 300603Z 3006/3106 04015KT P6SM FEW060 SCT250
     FM301000 05009KT P6SM FEW045
     FM310100 04004KT P6SM SCT250=



000
FTUS44 KLIX 300500
TAFBTR
TAF
KBTR 300522Z 3006/3106 36003KT P6SM SKC
     FM301500 06005KT P6SM FEW045
     FM310000 VRB03KT P6SM SCT250=



000
FTUS44 KLIX 300500
TAFNEW
TAF
KNEW 300522Z 3006/3106 02007KT P6SM FEW060 SCT250
     FM301500 05009KT P6SM FEW045
     FM310100 04004KT P6SM SCT250=



000
FTUS44 KLIX 300500
TAFNEW
TAF
KNEW 300522Z 3006/3106 02007KT P6SM FEW060 SCT250
     FM301500 05009KT P6SM FEW045
     FM310100 04004KT P6SM SCT250=



000
FTUS44 KLIX 300500
TAFGPT
TAF
KGPT 300522Z 3006/3106 35003KT P6SM FEW060
     FM301400 04007KT P6SM SCT040
     FM301900 VRB05KT P6SM SCT045
     FM310000 VRB03KT P6SM SCT250=



000
FTUS44 KLIX 300500
TAFMCB
TAF
KMCB 300522Z 3006/3106 36004KT P6SM SKC
     FM301500 06004KT P6SM FEW045
     FM310000 VRB03KT P6SM SCT250=



000
FTUS44 KLIX 300500
TAFMSY
TAF
KMSY 300522Z 3006/3106 36006KT P6SM FEW060 SCT250
     FM301500 05007KT P6SM SCT045
     FM310100 VRB03KT P6SM SCT250=



000
FTUS44 KLIX 292300
TAFNEW
TAF
KNEW 292320Z 3000/3024 33007KT P6SM SCT250
     FM300800 04011KT P6SM SCT250
     FM301500 05009KT P6SM SCT040 SCT250=



000
FTUS44 KLIX 292300
TAFMSY
TAF
KMSY 292320Z 3000/3024 36005KT P6SM FEW040 SCT250
     FM300300 01004KT P6SM SCT250
     FM301430 04007KT P6SM SCT040 SCT250
     FM302300 VRB03KT P6SM SCT250=



000
FTUS44 KLIX 292300
TAFGPT
TAF
KGPT 292320Z 3000/3024 35005KT P6SM SCT070
     FM300200 01005KT P6SM SCT250
     FM301430 03007KT P6SM FEW045 SCT250=



000
FTUS44 KLIX 292300
TAFBTR
TAF
KBTR 292320Z 3000/3024 35005KT P6SM SKC
     FM301300 05005KT P6SM FEW045 SCT250=



000
FTUS44 KLIX 292300
TAFMCB
TAF
KMCB 292320Z 3000/3024 35005KT P6SM SCT070
     FM300400 00000KT P6SM SCT250
     FM301430 02004KT P6SM FEW045 SCT250=



000
FTUS44 KLIX 291700
TAFNEW
TAF
KNEW 291739Z 2918/3018 35006KT P6SM FEW050 BKN250
     FM301500 06007KT P6SM SCT100 SCT200=



000
FTUS44 KLIX 291700
TAFBTR
TAF
KBTR 291739Z 2918/3018 36005KT P6SM FEW040 SCT200
     FM301400 06005KT P6SM FEW150=



000
FTUS44 KLIX 291700
TAFGPT
TAF
KGPT 291739Z 2918/3018 34005KT P6SM FEW050 SCT250
     FM300800 04004KT P6SM FEW250=



000
FTUS44 KLIX 291700
TAFMSY
TAF
KMSY 291739Z 2918/3018 01007KT P6SM FEW050 BKN250
     FM301300 04007KT P6SM SCT100 BKN200=



000
FTUS44 KLIX 291700
TAFMCB
TAF
KMCB 291739Z 2918/3018 36005KT P6SM FEW050
     FM301400 06004KT P6SM FEW250=



000
FTUS44 KLIX 291700
TAFNEW
TAF
KNEW 291739Z 2918/3018 35006KT P6SM FEW050 BKN250
     FM301500 06007KT P6SM SCT100 SCT200=



000
FTUS44 KLIX 291100
TAFMCB
TAF
KMCB 291122Z 2912/3012 02004KT P6SM BKN250
     FM291800 34008KT P6SM SCT250
     FM300200 00000KT P6SM SCT250=



000
FTUS44 KLIX 291100
TAFGPT
TAF
KGPT 291122Z 2912/3012 01006KT P6SM BKN250
     FM292000 29004KT P6SM FEW250
     FM300300 00000KT P6SM SCT060=



000
FTUS44 KLIX 291100
TAFMSY
TAF
KMSY 291122Z 2912/3012 04006KT P6SM SCT040 BKN250
     FM291400 03006KT P6SM SCT200
     FM292100 33005KT P6SM SCT200
     FM300500 03004KT P6SM FEW070=



000
FTUS44 KLIX 291100
TAFNEW
TAF
KNEW 291122Z 2912/3012 02012KT P6SM SCT040 BKN250
     FM291400 02007KT P6SM SCT040 BKN250
     FM292000 32005KT P6SM SCT200
     FM300400 02008KT P6SM FEW070
     FM301100 05008KT P6SM FEW250=



000
FTUS44 KLIX 291100
TAFBTR
TAF
KBTR 291122Z 2912/3012 03004KT P6SM BKN050
     FM291400 04005KT P6SM SCT250
     FM292100 34006KT P6SM SCT250
     FM300200 00000KT P6SM FEW250=



000
FTUS44 KLIX 291100
TAFNEW
TAF
KNEW 291122Z 2912/3012 02012KT P6SM SCT040 BKN250
     FM291400 02007KT P6SM SCT040 BKN250
     FM292000 32005KT P6SM SCT200
     FM300400 02008KT P6SM FEW070
     FM301100 05008KT P6SM FEW250=



000
FTUS44 KLIX 290900 AAA
TAFMSY
TAF AMD
KMSY 290907Z 2909/3006 03010KT P6SM SCT040 BKN250
     FM291400 01007KT P6SM SCT045 SCT250=



000
FTUS44 KLIX 290700 AAA
TAFNEW
TAF AMD
KNEW 290705Z 2907/3006 03015KT P6SM BKN040
     FM291100 02010KT P6SM BKN250
     FM291500 02008KT P6SM FEW045 SCT250
     FM292000 32005KT P6SM SCT250=



000
FTUS44 KLIX 290500
TAFGPT
TAF
KGPT 290525Z 2906/3006 32005KT P6SM FEW040 BKN250
     FM291400 34005KT P6SM FEW045 SCT250
     FM300200 VRB03KT P6SM SCT250=



000
FTUS44 KLIX 290500
TAFBTR
TAF
KBTR 290525Z 2906/3006 00000KT P6SM FEW045 BKN250
     FM291400 36005KT P6SM SCT250
     FM300300 00000KT P6SM FEW250=



000
FTUS44 KLIX 290500
TAFNEW
TAF
KNEW 290525Z 2906/3006 30008KT P6SM SCT040 BKN250
     FM290900 36010KT P6SM BKN250
     FM291500 02008KT P6SM FEW045 SCT250
     FM292000 32005KT P6SM SCT250=



000
FTUS44 KLIX 290500
TAFMCB
TAF
KMCB 290525Z 2906/3006 01004KT P6SM SCT250
     FM290900 VRB03KT 5SM BR SCT250
     FM291300 02004KT P6SM SCT250=



000
FTUS44 KLIX 290500
TAFMSY
TAF
KMSY 290525Z 2906/3006 31006KT P6SM SCT040 BKN250
     FM291400 01007KT P6SM SCT045 SCT250=



000
FTUS44 KLIX 290100 AAA
TAFBTR
TAF AMD
KBTR 290126Z 2901/2924 31005KT P6SM SCT035 SCT250
     FM290200 32005KT P6SM SCT050 SCT250
     FM291300 01005KT P6SM SCT050 SCT250=



000
FTUS44 KLIX 290100 AAA
TAFMCB
TAF AMD
KMCB 290105Z 2901/2924 31005KT P6SM FEW040 SCT250
     FM291300 35006KT P6SM FEW050 SCT250=



000
FTUS44 KLIX 282300
TAFGPT
TAF
KGPT 282328Z 2900/2924 29007KT P6SM VCSH SCT040 SCT250
     FM290200 29005KT P6SM FEW050 SCT250
     FM291400 32006KT P6SM FEW045 SCT250=



000
FTUS44 KLIX 282300
TAFNEW
TAF
KNEW 282328Z 2900/2924 28010KT P6SM SCT035 SCT250
     FM290600 31010KT P6SM FEW040 SCT250
     FM291500 36010KT P6SM FEW045 SCT250=



000
FTUS44 KLIX 282300
TAFMCB
TAF
KMCB 282328Z 2900/2924 29006KT P6SM VCSH SCT030 BKN045
      TEMPO 2900/2901 VRB25KT 3SM -TSRA BKN030CB
     FM290200 32004KT P6SM SCT050 SCT250
     FM291300 35006KT P6SM FEW050 SCT250=



000
FTUS44 KLIX 282300
TAFNEW
TAF
KNEW 282328Z 2900/2924 28010KT P6SM SCT035 SCT250
     FM290600 31010KT P6SM FEW040 SCT250
     FM291500 36010KT P6SM FEW045 SCT250=



000
FTUS44 KLIX 282300
TAFBTR
TAF
KBTR 282328Z 2900/2924 27007KT P6SM VCSH SCT035 BKN050
      TEMPO 2900/2902 VRB25KT 3SM -TSRA BKN030CB
     FM290200 29004KT P6SM SCT050 SCT250
     FM291300 01005KT P6SM SCT050 SCT250=



000
FTUS44 KLIX 282300
TAFMSY
TAF
KMSY 282328Z 2900/2924 28009KT P6SM SCT035 SCT250
     FM290600 30007KT P6SM FEW040 SCT250
     FM291500 36008KT P6SM FEW045 SCT250=



000
FTUS44 KLIX 282200 AAA
TAFMCB
TAF AMD
KMCB 282201Z 2822/2918 29008KT P6SM VCSH SCT030 SCT090 BKN250
      TEMPO 2822/2824 VRB15G30KT 2SM TSRA BKN030CB
     FM290100 35005KT P6SM BKN250=



000
FTUS44 KLIX 281700 RRA
TAFNEW
TAF
KNEW 281739Z 2818/2918 27011KT P6SM FEW030 BKN040
      TEMPO 2821/2824 VRB15G25KT 3SM -TSRA BKN035CB
     FM290300 31011KT P6SM BKN040
     FM291500 36008KT P6SM SCT250=



000
FTUS44 KLIX 281700 RRA
TAFMCB
TAF
KMCB 281739Z 2818/2918 29008KT P6SM SCT025 BKN040
      TEMPO 2819/2822 VRB15G30KT 2SM TSRA BKN030CB
     FM290200 35005KT P6SM BKN250=



000
FTUS44 KLIX 281700 RRA
TAFGPT
TAF
KGPT 281739Z 2818/2918 27009KT P6SM VCTS BKN050CB
      TEMPO 2820/2824 VRB15G25KT 3SM TSRA BKN035CB
     FM290100 34005KT P6SM FEW050 SCT250=



000
FTUS44 KLIX 281700 RRA
TAFNEW
TAF
KNEW 281739Z 2818/2918 27011KT P6SM FEW030 BKN040
      TEMPO 2821/2824 VRB15G25KT 3SM -TSRA BKN035CB
     FM290300 31011KT P6SM BKN040
     FM291500 36008KT P6SM SCT250=



000
FTUS44 KLIX 281700 RRA
TAFMSY
TAF
KMSY 281739Z 2818/2918 28010KT P6SM FEW030 BKN040
      TEMPO 2821/2824 VRB15G25KT 3SM -TSRA BKN035CB
     FM290300 29006KT P6SM BKN040
     FM291500 36006KT P6SM SCT250=



000
FTUS44 KLIX 281700 RRA
TAFBTR
TAF
KBTR 281739Z 2818/2918 30008KT P6SM VCSH SCT030 BKN040
      TEMPO 2819/2822 VRB15G30KT 2SM TSRA BKN030CB
     FM290200 28004KT P6SM SCT050 BKN250
     FM291300 02005KT P6SM FEW060 SCT250=



    US Dept of Commerce
    National Oceanic and Atmospheric Administration
    National Weather Service
    1325 East West Highway
    Silver Spring, MD 20910
    Page Author: NWS Internet Services Team
Disclaimer
Information Quality
Credits
Glossary
Privacy Policy
Freedom of Information Act (FOIA)
About Us
Career Opportunities